createdAt,value
2018-05-25T00:02:24.135Z,4.13
2018-05-25T00:04:51.727Z,4.70
2018-05-25T00:07:20.056Z,5.70
2018-05-25T00:09:47.615Z,3.80
2018-05-25T00:12:15.194Z,4.77
2018-05-25T00:14:42.749Z,4.13
2018-05-25T00:17:11.067Z,4.67
2018-05-25T00:19:38.643Z,4.53
2018-05-25T00:22:06.201Z,4.50
2018-05-25T00:24:33.758Z,4.50
2018-05-25T00:27:01.354Z,4.53
2018-05-25T00:29:28.916Z,4.00
2018-05-25T00:31:56.476Z,4.33
2018-05-25T00:34:24.064Z,4.90
2018-05-25T00:36:51.614Z,4.37
2018-05-25T00:39:19.930Z,4.53
2018-05-25T00:41:47.514Z,4.77
2018-05-25T00:44:15.065Z,4.13
2018-05-25T00:46:42.639Z,4.43
2018-05-25T00:49:10.232Z,5.33
2018-05-25T00:51:38.598Z,5.50
2018-05-25T00:54:06.166Z,4.80
2018-05-25T00:56:33.742Z,4.63
2018-05-25T00:59:01.295Z,4.33
2018-05-25T01:01:29.620Z,4.57
2018-05-25T01:03:57.209Z,4.50
2018-05-25T01:06:24.769Z,4.60
2018-05-25T01:08:52.342Z,4.37
2018-05-25T01:11:19.929Z,4.00
2018-05-25T01:13:47.501Z,5.13
2018-05-25T01:16:15.054Z,5.20
2018-05-25T01:18:42.638Z,7.27
2018-05-25T01:21:10.203Z,5.00
2018-05-25T01:23:37.758Z,6.50
2018-05-25T01:26:05.334Z,5.43
2018-05-25T01:28:32.905Z,5.27
2018-05-25T01:31:00.454Z,5.13
2018-05-25T01:33:28.793Z,6.97
2018-05-25T01:35:56.342Z,4.80
2018-05-25T01:38:23.913Z,3.90
2018-05-25T01:40:51.498Z,5.50
2018-05-25T01:43:19.046Z,4.17
2018-05-25T01:45:47.369Z,5.50
2018-05-25T01:48:14.948Z,4.77
2018-05-25T01:50:42.503Z,4.53
2018-05-25T01:53:10.058Z,4.40
2018-05-25T01:55:38.409Z,4.77
2018-05-25T01:58:05.958Z,5.10
2018-05-25T02:00:33.509Z,5.10
2018-05-25T02:03:01.086Z,4.53
2018-05-25T02:05:28.634Z,4.70
2018-05-25T02:07:56.958Z,5.07
2018-05-25T02:10:24.551Z,4.70
2018-05-25T02:12:52.168Z,5.53
2018-05-25T02:15:20.491Z,4.53
2018-05-25T02:17:48.075Z,5.27
2018-05-25T02:20:15.636Z,5.17
2018-05-25T02:22:43.200Z,4.60
2018-05-25T02:25:10.786Z,5.47
2018-05-25T02:27:38.345Z,5.10
2018-05-25T02:30:05.905Z,5.07
2018-05-25T02:32:33.481Z,4.53
2018-05-25T02:35:01.039Z,5.70
2018-05-25T02:37:29.354Z,5.80
2018-05-25T02:39:56.946Z,5.50
2018-05-25T02:42:24.515Z,5.40
2018-05-25T02:44:52.071Z,5.30
2018-05-25T02:47:19.647Z,6.37
2018-05-25T02:49:47.193Z,5.27
2018-05-25T02:52:15.510Z,4.97
2018-05-25T02:54:43.095Z,5.23
2018-05-25T02:57:10.709Z,6.03
2018-05-25T02:59:38.230Z,6.10
2018-05-25T03:02:05.824Z,6.30
2018-05-25T03:04:33.382Z,5.53
2018-05-25T03:07:00.935Z,6.63
2018-05-25T03:09:28.564Z,5.57
2018-05-25T03:11:56.132Z,5.33
2018-05-25T03:14:23.686Z,5.23
2018-05-25T03:16:51.349Z,5.87
2018-05-25T03:19:19.634Z,5.37
2018-05-25T03:21:47.195Z,5.57
2018-05-25T03:24:14.774Z,5.57
2018-05-25T03:26:42.336Z,5.77
2018-05-25T03:29:09.887Z,5.57
2018-05-25T03:31:38.226Z,5.33
2018-05-25T03:34:05.781Z,5.10
2018-05-25T03:36:33.331Z,5.10
2018-05-25T03:39:01.689Z,4.60
2018-05-25T03:41:29.247Z,6.43
2018-05-25T03:43:56.800Z,5.33
2018-05-25T03:46:24.390Z,5.60
2018-05-25T03:48:51.943Z,5.93
2018-05-25T03:51:19.502Z,5.57
2018-05-25T03:53:47.108Z,6.10
2018-05-25T03:56:14.662Z,5.87
2018-05-25T03:58:54.222Z,6.28
2018-05-25T04:01:33.718Z,5.47
2018-05-25T04:04:01.258Z,5.37
2018-05-25T04:06:28.823Z,8.67
2018-05-25T04:08:56.380Z,5.87
2018-05-25T04:11:25.567Z,5.47
2018-05-25T04:13:53.153Z,7.30
2018-05-25T04:16:20.705Z,5.73
2018-05-25T04:18:49.050Z,5.90
2018-05-25T04:21:16.607Z,4.97
2018-05-25T04:23:44.162Z,6.50
2018-05-25T04:26:11.743Z,5.63
2018-05-25T04:28:39.307Z,7.47
2018-05-25T04:31:06.863Z,7.40
2018-05-25T04:33:35.206Z,6.33
2018-05-25T04:36:02.751Z,6.33
2018-05-25T04:38:30.307Z,6.70
2018-05-25T04:40:59.216Z,5.80
2018-05-25T04:43:26.877Z,5.80
2018-05-25T04:45:55.737Z,6.70
2018-05-25T04:48:23.319Z,8.27
2018-05-25T04:50:50.896Z,8.13
2018-05-25T04:53:18.454Z,7.60
2018-05-25T04:55:46.042Z,6.60
2018-05-25T04:58:13.592Z,6.73
2018-05-25T05:00:41.146Z,6.70
2018-05-25T05:03:08.727Z,6.33
2018-05-25T05:05:36.283Z,5.37
2018-05-25T05:08:03.834Z,6.30
2018-05-25T05:10:32.178Z,6.23
2018-05-25T05:12:59.739Z,6.23
2018-05-25T05:15:27.304Z,6.13
2018-05-25T05:17:54.901Z,6.83
2018-05-25T05:20:22.466Z,6.03
2018-05-25T05:22:50.024Z,5.63
2018-05-25T05:25:17.604Z,5.23
2018-05-25T05:27:45.179Z,6.27
2018-05-25T05:30:12.826Z,6.10
2018-05-25T05:32:40.426Z,6.27
2018-05-25T05:35:08.044Z,6.30
2018-05-25T05:37:36.372Z,6.37
2018-05-25T05:40:03.943Z,5.87
2018-05-25T05:42:31.518Z,7.53
2018-05-25T05:44:59.087Z,5.87
2018-05-25T05:47:26.661Z,6.57
2018-05-25T05:49:54.254Z,5.97
2018-05-25T05:52:21.813Z,4.83
2018-05-25T05:54:49.395Z,4.80
2018-05-25T05:57:16.941Z,5.80
2018-05-25T05:59:44.490Z,4.90
2018-05-25T06:02:12.846Z,6.00
2018-05-25T06:04:40.406Z,5.80
2018-05-25T06:07:07.953Z,5.50
2018-05-25T06:09:35.527Z,5.00
2018-05-25T06:12:03.082Z,5.93
2018-05-25T06:14:31.398Z,4.80
2018-05-25T06:16:58.982Z,4.60
2018-05-25T06:19:26.536Z,5.10
2018-05-25T06:21:54.102Z,4.90
2018-05-25T06:24:21.687Z,5.10
2018-05-25T06:26:49.234Z,4.50
2018-05-25T06:29:17.555Z,4.80
2018-05-25T06:31:45.144Z,5.00
2018-05-25T06:34:12.713Z,8.57
2018-05-25T06:36:40.279Z,5.63
2018-05-25T06:39:07.865Z,5.43
2018-05-25T06:41:35.409Z,6.37
2018-05-25T06:44:02.963Z,4.53
2018-05-25T06:46:31.312Z,4.67
2018-05-25T06:48:58.868Z,4.07
2018-05-25T06:51:26.418Z,6.67
2018-05-25T06:53:53.994Z,4.87
2018-05-25T06:56:21.550Z,4.20
2018-05-25T06:58:49.103Z,3.83
2018-05-25T07:01:17.443Z,4.10
2018-05-25T07:03:44.986Z,5.10
2018-05-25T07:06:12.534Z,8.23
2018-05-25T07:08:40.968Z,5.43
2018-05-25T07:11:08.527Z,4.17
2018-05-25T07:13:36.105Z,4.37
2018-05-25T07:16:03.687Z,4.00
2018-05-25T07:18:31.252Z,3.63
2018-05-25T07:20:58.807Z,3.47
2018-05-25T07:23:27.150Z,3.53
2018-05-25T07:25:54.702Z,4.43
2018-05-25T07:28:22.278Z,5.00
2018-05-25T07:30:49.852Z,5.23
2018-05-25T07:33:17.411Z,4.93
2018-05-25T07:35:44.966Z,4.17
2018-05-25T07:38:12.550Z,4.87
2018-05-25T07:40:40.137Z,4.30
2018-05-25T07:43:07.691Z,4.17
2018-05-25T07:45:35.266Z,4.10
2018-05-25T07:48:02.823Z,4.43
2018-05-25T07:50:31.139Z,4.70
2018-05-25T07:52:58.726Z,4.93
2018-05-25T07:55:26.271Z,4.47
2018-05-25T07:57:53.843Z,4.90
2018-05-25T08:00:21.430Z,4.47
2018-05-25T08:02:48.998Z,4.10
2018-05-25T08:05:16.551Z,6.40
2018-05-25T08:07:44.892Z,4.10
2018-05-25T08:10:12.446Z,5.70
2018-05-25T08:12:40.010Z,6.13
2018-05-25T08:15:07.595Z,4.63
2018-05-25T08:17:35.173Z,4.27
2018-05-25T08:20:02.726Z,4.63
2018-05-25T08:22:30.306Z,4.40
2018-05-25T08:24:57.845Z,4.23
2018-05-25T08:27:26.164Z,4.63
2018-05-25T08:29:53.742Z,3.90
2018-05-25T08:32:21.297Z,4.63
2018-05-25T08:34:48.842Z,4.53
2018-05-25T08:37:17.211Z,7.10
2018-05-25T08:39:44.762Z,4.40
2018-05-25T08:42:12.302Z,6.80
2018-05-25T08:44:39.880Z,4.07
2018-05-25T08:47:07.427Z,4.20
2018-05-25T08:49:35.742Z,3.93
2018-05-25T08:52:03.323Z,4.30
2018-05-25T08:54:30.866Z,4.30
2018-05-25T08:56:59.175Z,6.20
2018-05-25T08:59:26.766Z,5.00
2018-05-25T09:01:54.306Z,5.27
2018-05-25T09:04:22.614Z,6.30
2018-05-25T09:06:50.299Z,5.30
2018-05-25T09:09:17.762Z,4.97
2018-05-25T09:11:45.310Z,4.80
2018-05-25T09:14:12.891Z,4.20
2018-05-25T09:16:40.464Z,4.50
2018-05-25T09:19:08.011Z,4.07
2018-05-25T09:21:36.359Z,5.17
2018-05-25T09:24:03.924Z,5.30
2018-05-25T09:26:31.471Z,4.00
2018-05-25T09:28:59.047Z,5.80
2018-05-25T09:31:26.599Z,4.60
2018-05-25T09:33:54.921Z,4.50
2018-05-25T09:36:22.536Z,4.37
2018-05-25T09:38:50.087Z,4.63
2018-05-25T09:41:17.656Z,5.67
2018-05-25T09:43:45.231Z,3.97
2018-05-25T09:46:12.778Z,4.17
2018-05-25T09:48:40.336Z,3.93
2018-05-25T09:51:07.918Z,3.93
2018-05-25T09:53:35.475Z,4.40
2018-05-25T09:56:03.839Z,3.60
2018-05-25T09:58:31.389Z,4.00
2018-05-25T10:00:58.936Z,4.10
2018-05-25T10:03:26.487Z,4.87
2018-05-25T10:05:54.830Z,3.47
2018-05-25T10:08:22.374Z,3.37
2018-05-25T10:10:49.930Z,3.40
2018-05-25T10:13:17.502Z,3.90
2018-05-25T10:15:45.049Z,3.60
2018-05-25T10:18:12.601Z,4.90
2018-05-25T10:20:40.194Z,3.73
2018-05-25T10:23:07.755Z,3.20
2018-05-25T10:25:35.306Z,4.07
2018-05-25T10:28:02.880Z,4.33
2018-05-25T10:30:30.422Z,3.80
2018-05-25T10:32:57.998Z,6.43
2018-05-25T10:35:25.566Z,3.90
2018-05-25T10:37:53.168Z,4.07
2018-05-25T10:40:20.753Z,4.17
2018-05-25T10:42:48.321Z,4.43
2018-05-25T10:45:15.874Z,5.33
2018-05-25T10:47:43.414Z,4.80
2018-05-25T10:50:11.760Z,4.23
2018-05-25T10:52:39.318Z,8.20
2018-05-25T10:55:06.871Z,4.17
2018-05-25T10:57:34.442Z,5.03
2018-05-25T11:00:01.977Z,4.00
2018-05-25T11:02:30.290Z,3.87
2018-05-25T11:04:57.904Z,6.50
2018-05-25T11:07:25.466Z,4.93
2018-05-25T11:09:53.028Z,4.37
2018-05-25T11:12:20.647Z,4.53
2018-05-25T11:14:48.194Z,4.53
2018-05-25T11:17:15.746Z,5.67
2018-05-25T11:19:43.310Z,4.13
2018-05-25T11:22:10.854Z,4.33
2018-05-25T11:24:39.163Z,4.80
2018-05-25T11:27:06.773Z,5.00
2018-05-25T11:29:34.314Z,5.30
2018-05-25T11:32:01.862Z,4.37
2018-05-25T11:34:30.225Z,5.43
2018-05-25T11:36:57.773Z,4.90
2018-05-25T11:39:25.320Z,5.37
2018-05-25T11:41:52.893Z,6.30
2018-05-25T11:44:20.444Z,4.33
2018-05-25T11:46:48.758Z,5.37
2018-05-25T11:49:16.326Z,4.93
2018-05-25T11:51:43.874Z,5.17
2018-05-25T11:54:12.178Z,4.03
2018-05-25T11:56:40.511Z,5.13
2018-05-25T11:59:08.053Z,4.10
2018-05-25T12:01:35.603Z,4.80
2018-05-25T12:04:03.943Z,4.90
2018-05-25T12:06:31.548Z,4.37
2018-05-25T12:08:59.078Z,4.80
2018-05-25T12:11:26.674Z,4.67
2018-05-25T12:13:54.291Z,4.77
2018-05-25T12:16:22.612Z,4.50
2018-05-25T12:18:50.179Z,5.13
2018-05-25T12:21:17.740Z,4.80
2018-05-25T12:23:45.285Z,4.00
2018-05-25T12:26:13.632Z,4.37
2018-05-25T12:28:41.223Z,5.00
2018-05-25T12:31:08.767Z,4.83
2018-05-25T12:33:36.364Z,3.67
2018-05-25T12:36:03.910Z,4.00
2018-05-25T12:38:31.458Z,4.40
2018-05-25T12:40:59.794Z,4.83
2018-05-25T12:43:27.347Z,4.47
2018-05-25T12:45:54.891Z,4.30
2018-05-25T12:48:23.248Z,4.07
2018-05-25T12:50:50.805Z,6.07
2018-05-25T12:53:18.363Z,4.37
2018-05-25T12:55:45.951Z,4.23
2018-05-25T12:58:13.500Z,4.20
2018-05-25T13:00:41.061Z,3.90
2018-05-25T13:03:08.642Z,4.20
2018-05-25T13:05:36.226Z,4.00
2018-05-25T13:08:03.766Z,3.90
2018-05-25T13:10:32.106Z,4.17
2018-05-25T13:12:59.649Z,4.63
2018-05-25T13:15:27.195Z,4.03
2018-05-25T13:17:55.552Z,3.83
2018-05-25T13:20:23.102Z,4.40
2018-05-25T13:22:50.648Z,6.33
2018-05-25T13:25:18.239Z,3.67
2018-05-25T13:27:45.792Z,5.80
2018-05-25T13:30:13.342Z,4.10
2018-05-25T13:32:41.693Z,4.27
2018-05-25T13:35:09.262Z,3.77
2018-05-25T13:37:36.810Z,3.90
2018-05-25T13:40:04.386Z,3.90
2018-05-25T13:42:31.950Z,3.83
2018-05-25T13:44:59.501Z,4.57
2018-05-25T13:47:27.842Z,4.90
2018-05-25T13:49:55.403Z,4.43
2018-05-25T13:52:22.962Z,4.10
2018-05-25T13:54:50.534Z,3.90
2018-05-25T13:57:18.083Z,4.10
2018-05-25T13:59:45.639Z,4.37
2018-05-25T14:02:13.226Z,4.60
2018-05-25T14:04:41.544Z,4.00
2018-05-25T14:07:09.090Z,3.63
2018-05-25T14:09:36.686Z,4.23
2018-05-25T14:12:04.242Z,4.13
2018-05-25T14:14:31.819Z,5.60
2018-05-25T14:16:59.389Z,4.20
2018-05-25T14:19:26.943Z,3.97
2018-05-25T14:21:55.258Z,5.03
2018-05-25T14:24:22.843Z,3.70
2018-05-25T14:26:50.396Z,5.07
2018-05-25T14:29:17.947Z,5.17
2018-05-25T14:31:45.517Z,4.00
2018-05-25T14:34:13.063Z,4.17
2018-05-25T14:36:40.610Z,3.97
2018-05-25T14:39:08.191Z,4.03
2018-05-25T14:41:35.729Z,3.90
2018-05-25T14:44:03.287Z,3.70
2018-05-25T14:46:31.644Z,4.30
2018-05-25T14:48:59.211Z,3.70
2018-05-25T14:51:26.793Z,4.40
2018-05-25T14:53:54.417Z,4.10
2018-05-25T14:56:22.714Z,6.53
2018-05-25T14:58:50.267Z,4.07
2018-05-25T15:01:17.878Z,3.67
2018-05-25T15:03:45.426Z,4.13
2018-05-25T15:06:12.980Z,4.40
2018-05-25T15:08:41.350Z,4.50
2018-05-25T15:11:08.899Z,5.13
2018-05-25T15:13:36.448Z,4.70
2018-05-25T15:16:04.016Z,5.23
2018-05-25T15:18:31.618Z,3.50
2018-05-25T15:20:59.171Z,5.17
2018-05-25T15:23:26.762Z,3.70
2018-05-25T15:25:54.318Z,4.33
2018-05-25T15:28:21.861Z,4.00
2018-05-25T15:30:50.297Z,5.20
2018-05-25T15:33:17.790Z,4.47
2018-05-25T15:35:45.338Z,5.13
2018-05-25T15:38:12.930Z,3.70
2018-05-25T15:40:40.504Z,3.93
2018-05-25T15:43:08.079Z,4.10
2018-05-25T15:45:35.670Z,3.77
2018-05-25T15:48:03.246Z,3.90
2018-05-25T15:50:30.824Z,3.53
2018-05-25T15:52:58.433Z,4.43
2018-05-25T15:55:25.975Z,4.43
2018-05-25T15:57:54.287Z,4.33
2018-05-25T16:00:21.863Z,4.20
2018-05-25T16:02:49.407Z,5.47
2018-05-25T16:05:16.954Z,4.77
2018-05-25T16:07:44.530Z,3.97
2018-05-25T16:10:12.082Z,5.40
2018-05-25T16:12:39.631Z,4.23
2018-05-25T16:15:07.208Z,5.20
2018-05-25T16:17:34.755Z,5.00
2018-05-25T16:20:03.080Z,4.13
2018-05-25T16:22:30.706Z,4.07
2018-05-25T16:24:58.273Z,5.30
2018-05-25T16:27:25.831Z,6.60
2018-05-25T16:29:53.406Z,4.70
2018-05-25T16:32:20.947Z,7.23
2018-05-25T16:34:48.737Z,5.20
2018-05-25T16:37:16.440Z,5.63
2018-05-25T16:39:44.200Z,4.60
2018-05-25T16:42:11.973Z,6.20
2018-05-25T16:44:39.573Z,5.50
2018-05-25T16:47:07.914Z,4.43
2018-05-25T16:49:35.484Z,5.47
2018-05-25T16:52:03.058Z,7.37
2018-05-25T16:54:30.643Z,5.63
2018-05-25T16:56:58.190Z,7.23
2018-05-25T16:59:25.974Z,5.10
2018-05-25T17:01:53.529Z,5.90
2018-05-25T17:04:24.409Z,5.60
2018-05-25T17:06:52.913Z,6.10
2018-05-25T17:09:20.725Z,8.17
2018-05-25T17:11:48.338Z,9.73
2018-05-25T17:14:16.858Z,6.20
2018-05-25T17:16:44.645Z,7.13
2018-05-25T17:19:14.385Z,7.40
2018-05-25T17:21:41.974Z,9.63
2018-05-25T17:24:09.539Z,10.13
2018-05-25T17:26:37.715Z,9.30
2018-05-25T17:29:05.419Z,16.00
2018-05-25T17:31:33.052Z,9.30
2018-05-25T17:34:00.612Z,8.33
2018-05-25T17:36:29.179Z,5.87
2018-05-25T17:38:57.826Z,8.03
2018-05-25T17:41:28.524Z,6.50
2018-05-25T17:43:56.106Z,6.77
2018-05-25T17:46:23.663Z,9.30
2018-05-25T17:48:51.247Z,7.23
2018-05-25T17:51:18.948Z,5.67
2018-05-25T17:53:47.266Z,6.20
2018-05-25T17:56:15.085Z,6.13
2018-05-25T17:58:43.133Z,5.77
2018-05-25T18:01:10.755Z,6.50
2018-05-25T18:03:38.610Z,6.80
2018-05-25T18:06:06.166Z,5.67
2018-05-25T18:08:36.403Z,4.90
2018-05-25T18:11:04.072Z,5.20
2018-05-25T18:13:31.628Z,4.70
2018-05-25T18:16:00.022Z,5.07
2018-05-25T18:18:28.357Z,4.00
2018-05-25T18:20:55.906Z,4.93
2018-05-25T18:23:23.505Z,5.10
2018-05-25T18:25:51.138Z,5.63
2018-05-25T18:28:18.732Z,5.43
2018-05-25T18:30:46.326Z,5.30
2018-05-25T18:33:13.897Z,5.53
2018-05-25T18:35:41.771Z,8.47
2018-05-25T18:38:09.992Z,4.90
2018-05-25T18:40:37.983Z,4.97
2018-05-25T18:43:06.464Z,5.70
2018-05-25T18:45:34.050Z,5.77
2018-05-25T18:48:01.641Z,6.00
2018-05-25T18:50:29.958Z,6.53
2018-05-25T18:52:57.651Z,5.87
2018-05-25T18:55:25.243Z,5.87
2018-05-25T18:57:52.840Z,5.63
2018-05-25T19:00:20.418Z,6.07
2018-05-25T19:02:48.429Z,6.60
2018-05-25T19:05:16.076Z,5.47
2018-05-25T19:07:44.094Z,7.47
2018-05-25T19:10:12.050Z,5.70
2018-05-25T19:12:39.638Z,6.60
2018-05-25T19:15:07.973Z,6.40
2018-05-25T19:17:35.664Z,6.03
2018-05-25T19:20:04.030Z,6.30
2018-05-25T19:22:31.589Z,6.10
2018-05-25T19:24:59.171Z,5.67
2018-05-25T19:27:26.743Z,6.10
2018-05-25T19:29:54.299Z,6.13
2018-05-25T19:32:21.906Z,6.83
2018-05-25T19:34:49.485Z,6.57
2018-05-25T19:37:17.086Z,6.40
2018-05-25T19:39:44.667Z,6.00
2018-05-25T19:42:12.986Z,6.57
2018-05-25T19:44:40.541Z,6.70
2018-05-25T19:47:08.201Z,6.40
2018-05-25T19:49:36.828Z,6.50
2018-05-25T19:52:04.751Z,6.60
2018-05-25T19:54:32.467Z,7.07
2018-05-25T19:57:00.818Z,6.77
2018-05-25T19:59:28.377Z,6.23
2018-05-25T20:01:55.955Z,6.90
2018-05-25T20:04:23.657Z,6.30
2018-05-25T20:06:51.262Z,7.20
2018-05-25T20:09:19.639Z,6.73
2018-05-25T20:11:47.982Z,7.53
2018-05-25T20:14:15.534Z,7.00
2018-05-25T20:16:43.122Z,8.23
2018-05-25T20:19:10.678Z,7.00
2018-05-25T20:21:38.282Z,7.60
2018-05-25T20:24:05.928Z,7.20
2018-05-25T20:26:33.530Z,7.13
2018-05-25T20:29:01.089Z,7.67
2018-05-25T20:31:28.680Z,7.77
2018-05-25T20:33:56.247Z,8.23
2018-05-25T20:36:23.811Z,7.00
2018-05-25T20:38:51.388Z,12.47
2018-05-25T20:41:18.943Z,7.63
2018-05-25T20:43:46.507Z,9.17
2018-05-25T20:46:14.094Z,8.27
2018-05-25T20:48:41.650Z,8.57
2018-05-25T20:51:09.203Z,9.40
2018-05-25T20:53:37.558Z,9.93
2018-05-25T20:56:05.118Z,9.40
2018-05-25T20:58:32.862Z,7.93
2018-05-25T21:01:00.503Z,7.10
2018-05-25T21:03:28.063Z,6.70
2018-05-25T21:05:55.627Z,7.20
2018-05-25T21:08:23.222Z,8.57
2018-05-25T21:10:50.793Z,9.27
2018-05-25T21:13:18.371Z,13.40
2018-05-25T21:15:45.951Z,8.50
2018-05-25T21:18:14.276Z,8.80
2018-05-25T21:20:41.836Z,9.80
2018-05-25T21:23:09.440Z,13.93
2018-05-25T21:25:36.994Z,10.47
2018-05-25T21:28:04.562Z,10.57
2018-05-25T21:30:32.166Z,11.50
2018-05-25T21:32:59.730Z,12.63
2018-05-25T21:35:27.286Z,10.37
2018-05-25T21:37:54.870Z,9.67
2018-05-25T21:40:22.419Z,9.40
2018-05-25T21:42:49.974Z,10.50
2018-05-25T21:45:18.322Z,8.90
2018-05-25T21:47:45.874Z,9.70
2018-05-25T21:50:13.417Z,8.20
2018-05-25T21:52:41.763Z,9.17
2018-05-25T21:55:09.316Z,7.90
2018-05-25T21:57:36.885Z,9.67
2018-05-25T22:00:04.494Z,7.57
2018-05-25T22:02:32.055Z,8.97
2018-05-25T22:04:59.610Z,9.77
2018-05-25T22:07:27.191Z,8.63
2018-05-25T22:09:54.734Z,9.90
2018-05-25T22:12:22.345Z,9.43
2018-05-25T22:14:49.903Z,8.33
2018-05-25T22:17:17.458Z,8.60
2018-05-25T22:19:45.019Z,9.70
2018-05-25T22:22:12.606Z,8.47
2018-05-25T22:24:40.155Z,8.30
2018-05-25T22:27:07.706Z,8.27
2018-05-25T22:29:36.069Z,8.10
2018-05-25T22:32:03.683Z,8.13
2018-05-25T22:34:32.003Z,9.13
2018-05-25T22:36:59.586Z,9.00
2018-05-25T22:39:27.143Z,8.47
2018-05-25T22:41:56.169Z,7.63
2018-05-25T22:44:35.772Z,8.07
2018-05-25T22:47:15.825Z,8.77
2018-05-25T22:49:55.684Z,8.90
2018-05-25T22:55:21.314Z,9.37
2018-05-25T22:57:48.882Z,8.63
2018-05-25T23:00:16.435Z,10.03
2018-05-25T23:02:44.028Z,9.73
2018-05-25T23:05:11.601Z,10.23
2018-05-25T23:07:39.156Z,9.40
2018-05-25T23:10:06.776Z,9.15
2018-05-25T23:12:34.343Z,10.40
2018-05-25T23:15:01.902Z,8.73
2018-05-25T23:17:29.528Z,8.73
2018-05-25T23:19:57.856Z,9.20
2018-05-25T23:22:25.425Z,9.00
2018-05-25T23:24:53.028Z,10.07
2018-05-25T23:27:20.591Z,9.53
2018-05-25T23:29:48.175Z,9.50
2018-05-25T23:32:16.542Z,9.38
2018-05-25T23:34:44.130Z,10.25
2018-05-25T23:37:11.686Z,10.00
2018-05-25T23:39:39.305Z,9.43
2018-05-25T23:42:06.894Z,10.05
2018-05-25T23:44:34.466Z,9.48
2018-05-25T23:47:02.062Z,10.93
2018-05-25T23:49:29.647Z,10.02
2018-05-25T23:51:57.224Z,10.70
2018-05-25T23:54:24.838Z,10.35
2018-05-25T23:56:52.430Z,11.60
2018-05-25T23:59:20.011Z,10.60
